Terminal Aerodrome Forecast
Issued by NWS

Home | Current Version | Previous Version | Text Only | Print | Product List | Glossary On
Versions: 1 2 3 4 5 6 7 8 9 10 11 12 13 14 15 16 17 18 19 20 21 22 23 24 25 26
000
FTUS41 KBUF 301400 AAA
TAFIAG
TAF AMD
KIAG 301456Z 3015/3112 24017G28KT P6SM SCT025 OVC035
      TEMPO 3015/3018 BKN025
     FM301800 27020G32KT 6SM -SHRASN OVC025
     FM302100 27015G21KT P6SM BKN035
     FM310000 27011KT P6SM SCT050
     FM310600 22006KT P6SM SCT250
     FM311000 14004KT P6SM OVC100=

USA.gov is the U.S. government's official web portal to all federal, state and local government web resources and services.